createdAt,value
2017-11-08T00:00:18.414Z,78.03
2017-11-08T00:00:52.308Z,75.78
2017-11-08T00:01:26.189Z,79.78
2017-11-08T00:02:00.067Z,72.80
2017-11-08T00:02:33.953Z,76.10
2017-11-08T00:03:07.845Z,74.18
2017-11-08T00:03:41.740Z,81.95
2017-11-08T00:04:18.668Z,74.87
2017-11-08T00:04:54.962Z,76.65
2017-11-08T00:05:28.852Z,70.37
2017-11-08T00:06:02.736Z,72.80
2017-11-08T00:06:36.619Z,87.65
2017-11-08T00:07:10.520Z,83.35
2017-11-08T00:07:44.429Z,75.47
2017-11-08T00:08:18.326Z,82.07
2017-11-08T00:08:52.213Z,76.25
2017-11-08T00:09:26.104Z,82.37
2017-11-08T00:09:59.982Z,88.65
2017-11-08T00:10:33.876Z,88.32
2017-11-08T00:11:07.764Z,74.07
2017-11-08T00:11:41.660Z,80.75
2017-11-08T00:12:15.754Z,80.43
2017-11-08T00:12:49.631Z,80.55
2017-11-08T00:13:23.505Z,83.18
2017-11-08T00:13:57.378Z,73.25
2017-11-08T00:14:31.263Z,85.35
2017-11-08T00:15:05.152Z,85.43
2017-11-08T00:15:39.029Z,79.22
2017-11-08T00:16:12.920Z,86.63
2017-11-08T00:16:46.875Z,79.65
2017-11-08T00:17:20.755Z,75.57
2017-11-08T00:17:54.635Z,82.53
2017-11-08T00:18:28.531Z,78.18
2017-11-08T00:19:02.430Z,80.95
2017-11-08T00:19:36.298Z,90.53
2017-11-08T00:20:10.383Z,70.95
2017-11-08T00:20:44.259Z,85.18
2017-11-08T00:21:20.961Z,75.07
2017-11-08T00:21:54.851Z,83.40
2017-11-08T00:22:28.742Z,82.55
2017-11-08T00:23:02.652Z,79.50
2017-11-08T00:23:36.551Z,94.45
2017-11-08T00:24:12.216Z,80.68
2017-11-08T00:24:46.117Z,78.68
2017-11-08T00:25:20.904Z,88.28
2017-11-08T00:25:54.781Z,94.22
2017-11-08T00:26:28.765Z,91.55
2017-11-08T00:27:02.655Z,78.95
2017-11-08T00:27:36.546Z,79.03
2017-11-08T00:28:10.439Z,77.93
2017-11-08T00:28:44.307Z,80.70
2017-11-08T00:29:18.224Z,83.10
2017-11-08T00:29:52.122Z,80.10
2017-11-08T00:30:26.641Z,79.45
2017-11-08T00:31:00.551Z,89.72
2017-11-08T00:31:34.438Z,90.22
2017-11-08T00:32:08.603Z,90.72
2017-11-08T00:32:42.488Z,86.40
2017-11-08T00:33:16.418Z,82.88
2017-11-08T00:33:50.306Z,86.63
2017-11-08T00:34:24.201Z,74.50
2017-11-08T00:34:59.142Z,80.95
2017-11-08T00:35:34.118Z,90.95
2017-11-08T00:36:09.059Z,85.68
2017-11-08T00:36:43.302Z,84.72
2017-11-08T00:37:19.461Z,82.72
2017-11-08T00:37:53.758Z,84.75
2017-11-08T00:38:27.654Z,88.00
2017-11-08T00:39:03.622Z,95.60
2017-11-08T00:39:37.511Z,85.12
2017-11-08T00:40:13.308Z,84.13
2017-11-08T00:40:48.006Z,81.28
2017-11-08T00:41:21.895Z,81.78
2017-11-08T00:41:55.773Z,81.80
2017-11-08T00:42:30.745Z,80.30
2017-11-08T00:43:04.645Z,96.18
2017-11-08T00:43:39.312Z,87.70
2017-11-08T00:44:13.207Z,81.82
2017-11-08T00:44:47.091Z,78.93
2017-11-08T00:45:22.070Z,79.90
2017-11-08T00:45:55.989Z,86.85
2017-11-08T00:46:29.874Z,82.80
2017-11-08T00:47:03.850Z,85.78
2017-11-08T00:47:40.442Z,86.30
2017-11-08T00:48:14.341Z,77.95
2017-11-08T00:48:48.236Z,82.32
2017-11-08T00:49:22.109Z,81.87
2017-11-08T00:49:55.989Z,79.22
2017-11-08T00:50:30.080Z,79.70
2017-11-08T00:51:03.965Z,84.10
2017-11-08T00:51:37.859Z,91.87
2017-11-08T00:52:11.751Z,88.55
2017-11-08T00:52:49.106Z,95.93
2017-11-08T00:53:22.998Z,94.43
2017-11-08T00:53:56.897Z,75.43
2017-11-08T00:54:30.830Z,93.62
2017-11-08T00:55:04.721Z,82.40
2017-11-08T00:55:38.638Z,82.65
2017-11-08T00:56:12.532Z,83.47
2017-11-08T00:56:46.430Z,80.97
2017-11-08T00:57:26.034Z,89.45
2017-11-08T00:58:00.835Z,81.72
2017-11-08T00:58:34.721Z,86.15
2017-11-08T00:59:08.630Z,80.00
2017-11-08T00:59:43.493Z,76.05
2017-11-08T01:00:17.407Z,87.57
2017-11-08T01:00:56.984Z,80.70
2017-11-08T01:01:30.963Z,78.95
2017-11-08T01:02:04.858Z,79.55
2017-11-08T01:02:41.522Z,87.65
2017-11-08T01:03:15.419Z,76.32
2017-11-08T01:03:49.306Z,81.72
2017-11-08T01:04:23.206Z,84.05
2017-11-08T01:04:57.086Z,86.70
2017-11-08T01:05:30.985Z,82.28
2017-11-08T01:06:04.868Z,80.35
2017-11-08T01:06:38.756Z,84.70
2017-11-08T01:07:12.650Z,90.68
2017-11-08T01:07:46.525Z,81.70
2017-11-08T01:08:20.403Z,78.65
2017-11-08T01:08:54.304Z,86.03
2017-11-08T01:09:28.189Z,86.25
2017-11-08T01:10:02.077Z,86.93
2017-11-08T01:10:35.966Z,89.68
2017-11-08T01:11:09.869Z,85.70
2017-11-08T01:11:43.757Z,84.53
2017-11-08T01:12:17.650Z,79.12
2017-11-08T01:12:51.547Z,85.57
2017-11-08T01:13:25.454Z,90.18
2017-11-08T01:13:59.348Z,84.28
2017-11-08T01:14:33.253Z,84.03
2017-11-08T01:15:07.155Z,82.47
2017-11-08T01:15:41.032Z,93.62
2017-11-08T01:16:14.919Z,83.43
2017-11-08T01:16:48.828Z,89.95
2017-11-08T01:17:22.713Z,88.85
2017-11-08T01:17:56.592Z,79.93
2017-11-08T01:18:30.465Z,89.57
2017-11-08T01:19:04.371Z,84.15
2017-11-08T01:19:38.295Z,87.35
2017-11-08T01:20:12.195Z,94.50
2017-11-08T01:20:46.077Z,83.30
2017-11-08T01:21:19.972Z,86.72
2017-11-08T01:21:53.863Z,90.68
2017-11-08T01:22:27.761Z,81.15
2017-11-08T01:23:01.636Z,82.60
2017-11-08T01:23:35.516Z,82.53
2017-11-08T01:24:09.397Z,86.00
2017-11-08T01:24:43.317Z,90.00
2017-11-08T01:25:17.205Z,78.85
2017-11-08T01:25:51.093Z,82.55
2017-11-08T01:26:24.968Z,96.15
2017-11-08T01:26:58.856Z,86.35
2017-11-08T01:27:32.734Z,85.97
2017-11-08T01:28:06.615Z,86.20
2017-11-08T01:28:40.500Z,85.55
2017-11-08T01:29:14.386Z,82.95
2017-11-08T01:29:48.291Z,82.70
2017-11-08T01:30:22.179Z,91.72
2017-11-08T01:30:56.076Z,81.10
2017-11-08T01:31:29.973Z,83.12
2017-11-08T01:32:03.870Z,76.00
2017-11-08T01:32:37.749Z,82.95
2017-11-08T01:33:11.622Z,78.15
2017-11-08T01:33:45.515Z,90.15
2017-11-08T01:34:19.382Z,83.12
2017-11-08T01:34:53.297Z,84.43
2017-11-08T01:35:27.170Z,85.30
2017-11-08T01:36:01.767Z,89.97
2017-11-08T01:36:35.636Z,82.00
2017-11-08T01:37:15.100Z,87.68
2017-11-08T01:37:55.651Z,86.57
2017-11-08T01:38:29.528Z,90.72
2017-11-08T01:39:06.170Z,85.55
2017-11-08T01:39:40.047Z,84.80
2017-11-08T01:40:14.887Z,86.00
2017-11-08T01:40:48.776Z,87.28
2017-11-08T01:41:24.574Z,87.85
2017-11-08T01:42:00.250Z,87.82
2017-11-08T01:42:34.143Z,78.07
2017-11-08T01:43:08.044Z,78.07
2017-11-08T01:43:41.933Z,78.32
2017-11-08T01:44:15.837Z,86.20
2017-11-08T01:44:49.711Z,87.93
2017-11-08T01:45:26.131Z,78.68
2017-11-08T01:46:06.696Z,86.15
2017-11-08T01:46:40.577Z,88.45
2017-11-08T01:47:14.475Z,78.35
2017-11-08T01:47:48.380Z,81.78
2017-11-08T01:48:22.267Z,82.40
2017-11-08T01:48:59.965Z,84.45
2017-11-08T01:49:37.717Z,86.70
2017-11-08T01:50:11.602Z,89.78
2017-11-08T01:50:50.374Z,79.43
2017-11-08T01:51:24.525Z,91.12
2017-11-08T01:52:04.204Z,86.00
2017-11-08T01:52:38.096Z,83.75
2017-11-08T01:53:11.990Z,83.80
2017-11-08T01:53:45.901Z,84.57
2017-11-08T01:54:19.772Z,88.72
2017-11-08T01:54:53.647Z,78.22
2017-11-08T01:55:27.538Z,75.18
2017-11-08T01:56:01.453Z,90.30
2017-11-08T01:56:35.351Z,84.50
2017-11-08T01:57:09.231Z,89.68
2017-11-08T01:57:43.115Z,90.30
2017-11-08T01:58:16.998Z,79.75
2017-11-08T01:58:50.884Z,89.57
2017-11-08T01:59:24.767Z,88.15
2017-11-08T01:59:58.669Z,88.37
2017-11-08T02:00:32.578Z,86.32
2017-11-08T02:01:06.487Z,81.37
2017-11-08T02:01:40.378Z,86.03
2017-11-08T02:02:14.276Z,87.22
2017-11-08T02:02:48.171Z,81.15
2017-11-08T02:03:22.165Z,81.85
2017-11-08T02:03:56.047Z,81.55
2017-11-08T02:04:29.957Z,89.97
2017-11-08T02:05:03.852Z,90.72
2017-11-08T02:05:37.731Z,86.22
2017-11-08T02:06:11.650Z,85.62
2017-11-08T02:06:45.521Z,93.60
2017-11-08T02:07:19.400Z,81.43
2017-11-08T02:07:53.259Z,82.97
2017-11-08T02:08:27.137Z,85.97
2017-11-08T02:09:01.015Z,83.95
2017-11-08T02:09:34.912Z,81.70
2017-11-08T02:10:08.799Z,87.70
2017-11-08T02:10:42.690Z,94.90
2017-11-08T02:11:16.789Z,85.80
2017-11-08T02:11:50.681Z,87.95
2017-11-08T02:12:24.571Z,86.90
2017-11-08T02:12:58.474Z,88.05
2017-11-08T02:13:32.361Z,83.80
2017-11-08T02:14:06.239Z,89.65
2017-11-08T02:14:40.133Z,88.30
2017-11-08T02:15:14.010Z,86.55
2017-11-08T02:15:50.819Z,98.75
2017-11-08T02:16:24.712Z,81.80
2017-11-08T02:16:58.605Z,90.03
2017-11-08T02:17:32.496Z,83.57
2017-11-08T02:18:06.394Z,89.03
2017-11-08T02:18:40.283Z,96.93
2017-11-08T02:19:16.983Z,88.43
2017-11-08T02:19:50.878Z,94.05
2017-11-08T02:20:24.751Z,89.37
2017-11-08T02:20:58.629Z,94.22
2017-11-08T02:21:32.527Z,97.07
2017-11-08T02:22:06.426Z,87.57
2017-11-08T02:22:40.319Z,92.25
2017-11-08T02:23:14.222Z,96.57
2017-11-08T02:23:48.101Z,89.97
2017-11-08T02:24:21.997Z,84.95
2017-11-08T02:24:55.883Z,89.15
2017-11-08T02:25:29.778Z,83.57
2017-11-08T02:26:07.475Z,86.57
2017-11-08T02:26:41.366Z,84.60
2017-11-08T02:27:18.023Z,97.25
2017-11-08T02:27:51.919Z,90.18
2017-11-08T02:28:25.803Z,91.53
2017-11-08T02:28:59.680Z,85.30
2017-11-08T02:29:33.569Z,88.97
2017-11-08T02:30:07.473Z,85.75
2017-11-08T02:30:41.362Z,93.25
2017-11-08T02:31:15.292Z,96.05
2017-11-08T02:31:49.189Z,94.30
2017-11-08T02:32:23.076Z,85.10
2017-11-08T02:32:56.972Z,96.00
2017-11-08T02:33:32.645Z,88.97
2017-11-08T02:34:06.546Z,91.75
2017-11-08T02:34:40.435Z,99.55
2017-11-08T02:35:14.333Z,91.75
2017-11-08T02:35:48.230Z,83.82
2017-11-08T02:36:22.118Z,87.25
2017-11-08T02:36:56.017Z,84.43
2017-11-08T02:37:29.907Z,86.07
2017-11-08T02:38:03.804Z,101.60
2017-11-08T02:38:37.693Z,93.15
2017-11-08T02:39:11.590Z,87.82
2017-11-08T02:39:45.488Z,89.05
2017-11-08T02:40:19.385Z,96.00
2017-11-08T02:40:53.271Z,90.12
2017-11-08T02:41:27.170Z,86.57
2017-11-08T02:42:01.061Z,95.15
2017-11-08T02:42:34.972Z,92.22
2017-11-08T02:43:08.846Z,97.20
2017-11-08T02:43:42.752Z,88.43
2017-11-08T02:44:16.643Z,86.82
2017-11-08T02:44:50.544Z,82.25
2017-11-08T02:45:30.095Z,97.80
2017-11-08T02:46:07.883Z,81.25
2017-11-08T02:46:41.783Z,88.00
2017-11-08T02:47:15.676Z,84.25
2017-11-08T02:47:51.382Z,82.20
2017-11-08T02:48:25.272Z,86.15
2017-11-08T02:48:59.167Z,82.12
2017-11-08T02:49:33.063Z,96.10
2017-11-08T02:50:06.956Z,86.90
2017-11-08T02:50:40.835Z,82.12
2017-11-08T02:51:15.162Z,89.97
2017-11-08T02:51:49.043Z,86.97
2017-11-08T02:52:22.945Z,100.40
2017-11-08T02:52:56.838Z,94.00
2017-11-08T02:53:30.729Z,96.00
2017-11-08T02:54:04.621Z,87.15
2017-11-08T02:54:39.302Z,97.30
2017-11-08T02:55:13.989Z,93.35
2017-11-08T02:55:47.883Z,94.95
2017-11-08T02:56:21.781Z,87.65
2017-11-08T02:56:55.674Z,90.50
2017-11-08T02:57:29.567Z,90.32
2017-11-08T02:58:03.463Z,96.07
2017-11-08T02:58:37.355Z,87.62
2017-11-08T02:59:11.218Z,91.07
2017-11-08T02:59:45.104Z,96.10
2017-11-08T03:00:19.003Z,84.65
2017-11-08T03:00:52.873Z,93.62
2017-11-08T03:01:26.774Z,89.80
2017-11-08T03:02:00.645Z,97.40
2017-11-08T03:02:44.449Z,102.97
2017-11-08T03:03:19.162Z,98.97
2017-11-08T03:03:53.053Z,89.57
2017-11-08T03:04:26.931Z,94.05
2017-11-08T03:05:02.717Z,97.45
2017-11-08T03:05:36.598Z,99.32
2017-11-08T03:06:11.299Z,97.05
2017-11-08T03:06:45.196Z,97.82
2017-11-08T03:07:19.088Z,96.93
2017-11-08T03:07:52.985Z,91.45
2017-11-08T03:08:26.875Z,90.32
2017-11-08T03:09:00.774Z,91.75
2017-11-08T03:09:34.661Z,95.60
2017-11-08T03:10:08.554Z,91.22
2017-11-08T03:10:42.453Z,102.30
2017-11-08T03:11:16.344Z,88.10
2017-11-08T03:11:50.212Z,93.05
2017-11-08T03:12:24.102Z,90.68
2017-11-08T03:12:58.043Z,100.75
2017-11-08T03:13:31.932Z,88.78
2017-11-08T03:14:06.547Z,89.20
2017-11-08T03:14:40.447Z,100.90
2017-11-08T03:15:14.328Z,105.28
2017-11-08T03:15:48.221Z,90.10
2017-11-08T03:16:22.122Z,97.03
2017-11-08T03:16:56.012Z,96.93
2017-11-08T03:17:29.902Z,96.57
2017-11-08T03:18:03.817Z,87.57
2017-11-08T03:18:37.705Z,93.65
2017-11-08T03:19:11.593Z,93.15
2017-11-08T03:19:45.489Z,90.38
2017-11-08T03:20:19.380Z,97.18
2017-11-08T03:20:53.275Z,99.45
2017-11-08T03:21:27.167Z,100.80
2017-11-08T03:22:01.060Z,95.68
2017-11-08T03:22:34.972Z,87.35
2017-11-08T03:23:08.865Z,99.53
2017-11-08T03:23:42.749Z,96.10
2017-11-08T03:24:16.664Z,100.10
2017-11-08T03:24:50.550Z,101.97
2017-11-08T03:25:24.433Z,93.37
2017-11-08T03:25:58.329Z,101.45
2017-11-08T03:26:32.232Z,97.93
2017-11-08T03:27:06.145Z,107.28
2017-11-08T03:27:40.040Z,96.55
2017-11-08T03:28:13.938Z,97.05
2017-11-08T03:28:47.831Z,101.60
2017-11-08T03:29:21.723Z,93.53
2017-11-08T03:29:55.622Z,99.25
2017-11-08T03:30:29.505Z,91.60
2017-11-08T03:31:03.407Z,100.05
2017-11-08T03:31:37.298Z,97.03
2017-11-08T03:32:11.188Z,93.15
2017-11-08T03:32:45.072Z,96.65
2017-11-08T03:33:18.993Z,92.15
2017-11-08T03:33:52.876Z,93.93
2017-11-08T03:34:26.760Z,99.00
2017-11-08T03:35:00.634Z,98.85
2017-11-08T03:35:34.507Z,87.85
2017-11-08T03:36:08.392Z,94.78
2017-11-08T03:36:42.288Z,98.35
2017-11-08T03:37:17.146Z,93.75
2017-11-08T03:37:51.035Z,98.70
2017-11-08T03:38:24.930Z,102.25
2017-11-08T03:38:58.811Z,93.62
2017-11-08T03:39:32.691Z,99.35
2017-11-08T03:40:06.583Z,102.38
2017-11-08T03:40:40.474Z,82.95
2017-11-08T03:41:14.365Z,106.72
2017-11-08T03:41:48.246Z,91.07
2017-11-08T03:42:22.123Z,101.85
2017-11-08T03:42:56.012Z,91.03
2017-11-08T03:43:29.913Z,101.00
2017-11-08T03:44:03.787Z,93.68
2017-11-08T03:44:37.667Z,93.97
2017-11-08T03:45:11.567Z,102.45
2017-11-08T03:45:45.455Z,100.87
2017-11-08T03:46:19.354Z,96.75
2017-11-08T03:46:53.292Z,101.93
2017-11-08T03:47:27.168Z,95.10
2017-11-08T03:48:01.065Z,97.90
2017-11-08T03:48:34.954Z,92.03
2017-11-08T03:49:09.191Z,96.87
2017-11-08T03:49:44.052Z,96.32
2017-11-08T03:50:17.929Z,104.25
2017-11-08T03:50:51.807Z,95.82
2017-11-08T03:51:25.737Z,92.60
2017-11-08T03:51:59.629Z,100.93
2017-11-08T03:52:33.505Z,98.82
2017-11-08T03:53:07.436Z,115.00
2017-11-08T03:53:41.356Z,94.25
2017-11-08T03:54:15.240Z,94.35
2017-11-08T03:54:50.951Z,104.30
2017-11-08T03:55:24.832Z,105.72
2017-11-08T03:55:58.707Z,100.78
2017-11-08T03:56:33.389Z,101.03
2017-11-08T03:57:07.274Z,99.13
2017-11-08T03:57:41.160Z,94.43
2017-11-08T03:58:15.037Z,94.35
2017-11-08T03:58:48.937Z,91.95
2017-11-08T03:59:22.821Z,101.62
2017-11-08T03:59:56.713Z,104.82
2017-11-08T04:00:30.568Z,91.97
2017-11-08T04:01:04.475Z,103.80
2017-11-08T04:01:38.365Z,103.47
2017-11-08T04:02:12.266Z,106.12
2017-11-08T04:02:46.160Z,95.03
2017-11-08T04:03:20.055Z,98.62
2017-11-08T04:03:58.438Z,106.03
2017-11-08T04:04:32.346Z,109.12
2017-11-08T04:05:07.599Z,102.03
2017-11-08T04:05:42.732Z,101.40
2017-11-08T04:06:16.621Z,93.82
2017-11-08T04:06:50.864Z,102.80
2017-11-08T04:07:25.647Z,100.95
2017-11-08T04:07:59.604Z,98.68
2017-11-08T04:08:33.535Z,96.37
2017-11-08T04:09:07.427Z,101.90
2017-11-08T04:09:41.321Z,98.68
2017-11-08T04:10:16.272Z,103.50
2017-11-08T04:10:50.163Z,102.07
2017-11-08T04:11:24.055Z,97.20
2017-11-08T04:11:57.955Z,89.75
2017-11-08T04:12:31.929Z,100.25
2017-11-08T04:13:05.823Z,97.43
2017-11-08T04:13:39.717Z,102.75
2017-11-08T04:14:13.699Z,105.07
2017-11-08T04:14:47.628Z,96.82
2017-11-08T04:15:21.515Z,95.35
2017-11-08T04:15:55.450Z,93.93
2017-11-08T04:16:30.264Z,103.30
2017-11-08T04:17:04.995Z,102.12
2017-11-08T04:17:39.512Z,89.47
2017-11-08T04:18:13.390Z,94.28
2017-11-08T04:18:47.899Z,95.47
2017-11-08T04:19:22.618Z,97.22
2017-11-08T04:19:56.501Z,102.85
2017-11-08T04:20:30.401Z,107.12
2017-11-08T04:21:04.299Z,92.78
2017-11-08T04:21:39.592Z,99.97
2017-11-08T04:22:14.516Z,92.07
2017-11-08T04:22:49.361Z,101.28
2017-11-08T04:23:23.248Z,101.80
2017-11-08T04:23:57.188Z,93.03
2017-11-08T04:24:31.074Z,96.75
2017-11-08T04:25:05.010Z,101.53
2017-11-08T04:25:38.902Z,94.95
2017-11-08T04:26:12.790Z,93.78
2017-11-08T04:26:47.296Z,88.22
2017-11-08T04:27:21.479Z,84.40
2017-11-08T04:27:56.265Z,95.68
2017-11-08T04:28:30.150Z,96.70
2017-11-08T04:29:04.695Z,99.37
2017-11-08T04:29:38.611Z,105.70
2017-11-08T04:30:12.527Z,97.03
2017-11-08T04:30:46.454Z,101.50
2017-11-08T04:31:20.540Z,92.20
2017-11-08T04:31:54.416Z,104.57
2017-11-08T04:32:28.331Z,98.57
2017-11-08T04:33:02.265Z,101.72
2017-11-08T04:33:36.686Z,109.87
2017-11-08T04:34:11.586Z,91.82
2017-11-08T04:34:45.478Z,95.55
2017-11-08T04:35:19.962Z,96.78
2017-11-08T04:35:53.858Z,88.75
2017-11-08T04:36:27.745Z,84.87
2017-11-08T04:37:01.673Z,101.35
2017-11-08T04:37:36.336Z,96.68
2017-11-08T04:38:10.292Z,99.15
2017-11-08T04:38:44.202Z,101.68
2017-11-08T04:39:18.100Z,97.95
2017-11-08T04:39:51.995Z,100.03
2017-11-08T04:40:25.900Z,91.40
2017-11-08T04:40:59.794Z,97.20
2017-11-08T04:41:33.676Z,96.37
2017-11-08T04:42:07.569Z,102.25
2017-11-08T04:42:41.474Z,95.78
2017-11-08T04:43:15.370Z,95.78
2017-11-08T04:43:49.284Z,91.95
2017-11-08T04:44:23.188Z,93.57
2017-11-08T04:44:57.092Z,97.30
2017-11-08T04:45:31.037Z,95.18
2017-11-08T04:46:04.945Z,101.10
2017-11-08T04:46:38.841Z,93.60
2017-11-08T04:47:13.518Z,102.20
2017-11-08T04:47:47.414Z,105.32
2017-11-08T04:48:22.090Z,98.62
2017-11-08T04:48:55.982Z,96.78
2017-11-08T04:49:29.881Z,98.10
2017-11-08T04:50:03.836Z,107.22
2017-11-08T04:50:37.737Z,104.05
2017-11-08T04:51:11.619Z,95.15
2017-11-08T04:51:45.496Z,99.90
2017-11-08T04:52:20.416Z,100.35
2017-11-08T04:52:54.306Z,103.43
2017-11-08T04:53:29.578Z,103.75
2017-11-08T04:54:03.463Z,93.60
2017-11-08T04:54:37.355Z,96.75
2017-11-08T04:55:11.252Z,94.05
2017-11-08T04:55:45.144Z,98.35
2017-11-08T04:56:19.047Z,90.20
2017-11-08T04:56:52.930Z,104.97
2017-11-08T04:57:26.829Z,90.32
2017-11-08T04:58:00.758Z,93.93
2017-11-08T04:58:34.658Z,112.85
2017-11-08T04:59:08.543Z,96.90
2017-11-08T04:59:42.433Z,97.30
2017-11-08T05:00:16.329Z,102.55
2017-11-08T05:00:50.229Z,107.25
2017-11-08T05:01:24.878Z,97.53
2017-11-08T05:01:58.771Z,96.95
2017-11-08T05:02:32.671Z,99.65
2017-11-08T05:03:06.563Z,100.50
2017-11-08T05:03:40.465Z,102.40
2017-11-08T05:04:14.353Z,101.55
2017-11-08T05:04:48.258Z,92.30
2017-11-08T05:05:22.250Z,95.87
2017-11-08T05:05:56.573Z,93.82
2017-11-08T05:06:30.452Z,90.30
2017-11-08T05:07:04.326Z,97.10
2017-11-08T05:07:38.206Z,115.00
2017-11-08T05:08:12.139Z,103.22
2017-11-08T05:08:46.022Z,93.90
2017-11-08T05:09:19.907Z,89.93
2017-11-08T05:09:54.728Z,105.45
2017-11-08T05:10:28.626Z,99.22
2017-11-08T05:11:02.523Z,105.03
2017-11-08T05:11:36.398Z,107.20
2017-11-08T05:12:10.269Z,104.40
2017-11-08T05:12:44.424Z,100.85
2017-11-08T05:13:18.300Z,109.20
2017-11-08T05:13:52.195Z,101.35
2017-11-08T05:14:26.097Z,107.15
2017-11-08T05:14:59.992Z,102.22
2017-11-08T05:15:33.897Z,99.47
2017-11-08T05:16:07.771Z,98.72
2017-11-08T05:16:41.672Z,97.85
2017-11-08T05:17:15.577Z,99.80
2017-11-08T05:17:50.096Z,95.20
2017-11-08T05:18:23.995Z,109.97
2017-11-08T05:18:58.148Z,110.18
2017-11-08T05:19:32.031Z,105.30
2017-11-08T05:20:05.926Z,103.50
2017-11-08T05:20:39.836Z,102.57
2017-11-08T05:21:13.854Z,104.57
2017-11-08T05:21:47.747Z,93.80
2017-11-08T05:22:21.642Z,101.32
2017-11-08T05:22:55.536Z,101.68
2017-11-08T05:23:29.410Z,97.18
2017-11-08T05:24:03.288Z,110.43
2017-11-08T05:24:37.180Z,117.00
2017-11-08T05:25:11.382Z,101.30
2017-11-08T05:25:45.319Z,108.55
2017-11-08T05:26:19.202Z,105.00
2017-11-08T05:26:53.309Z,108.30
2017-11-08T05:27:27.209Z,110.60
2017-11-08T05:28:01.106Z,111.50
2017-11-08T05:28:34.998Z,101.50
2017-11-08T05:29:08.891Z,106.97
2017-11-08T05:29:42.784Z,112.12
2017-11-08T05:30:16.744Z,97.28
2017-11-08T05:30:50.640Z,106.50
2017-11-08T05:31:25.460Z,106.37
2017-11-08T05:31:59.442Z,100.80
2017-11-08T05:32:33.454Z,102.35
2017-11-08T05:33:07.344Z,106.37
2017-11-08T05:33:41.274Z,111.97
2017-11-08T05:34:15.170Z,106.03
2017-11-08T05:34:49.986Z,104.63
2017-11-08T05:35:23.880Z,103.82
2017-11-08T05:35:57.900Z,108.07
2017-11-08T05:36:31.775Z,101.30
2017-11-08T05:37:05.675Z,98.07
2017-11-08T05:37:40.641Z,103.62
2017-11-08T05:38:14.514Z,101.55
2017-11-08T05:38:48.396Z,104.85
2017-11-08T05:39:22.296Z,106.03
2017-11-08T05:39:56.191Z,91.05
2017-11-08T05:40:30.087Z,110.85
2017-11-08T05:41:04.006Z,108.82
2017-11-08T05:41:37.893Z,91.28
2017-11-08T05:42:11.774Z,104.32
2017-11-08T05:42:45.662Z,98.95
2017-11-08T05:43:19.602Z,102.03
2017-11-08T05:43:53.485Z,99.97
2017-11-08T05:44:27.380Z,109.32
2017-11-08T05:45:01.370Z,95.95
2017-11-08T05:45:35.376Z,92.05
2017-11-08T05:46:09.285Z,107.37
2017-11-08T05:46:43.203Z,94.85
2017-11-08T05:47:17.516Z,100.70
2017-11-08T05:47:51.406Z,100.18
2017-11-08T05:48:26.150Z,101.10
2017-11-08T05:49:00.035Z,107.65
2017-11-08T05:49:33.933Z,103.93
2017-11-08T05:50:07.838Z,101.10
2017-11-08T05:50:41.722Z,100.00
2017-11-08T05:51:15.665Z,103.97
2017-11-08T05:51:49.589Z,101.45
2017-11-08T05:52:23.493Z,97.22
2017-11-08T05:52:57.384Z,100.40
2017-11-08T05:53:31.283Z,103.20
2017-11-08T05:54:05.170Z,94.60
2017-11-08T05:54:39.064Z,107.12
2017-11-08T05:55:12.936Z,100.87
2017-11-08T05:55:46.861Z,105.63
2017-11-08T05:56:20.842Z,106.75
2017-11-08T05:56:54.745Z,107.32
2017-11-08T05:57:28.645Z,111.68
2017-11-08T05:58:02.533Z,98.78
2017-11-08T05:58:36.446Z,101.30
2017-11-08T05:59:10.468Z,101.15
2017-11-08T05:59:44.395Z,102.75
2017-11-08T06:00:18.289Z,110.30
2017-11-08T06:00:52.205Z,104.50
2017-11-08T06:01:27.150Z,105.25
2017-11-08T06:02:01.043Z,116.90
2017-11-08T06:02:34.938Z,104.82
2017-11-08T06:03:08.844Z,106.65
2017-11-08T06:03:43.156Z,99.60
2017-11-08T06:04:17.048Z,93.82
2017-11-08T06:04:50.929Z,109.37
2017-11-08T06:05:24.845Z,100.47
2017-11-08T06:05:58.805Z,96.37
2017-11-08T06:06:32.694Z,108.28
2017-11-08T06:07:06.905Z,106.53
2017-11-08T06:07:40.801Z,101.00
2017-11-08T06:08:14.685Z,106.53
2017-11-08T06:08:48.556Z,98.07
2017-11-08T06:09:22.438Z,105.32
2017-11-08T06:09:56.334Z,89.87
2017-11-08T06:10:30.217Z,104.70
2017-11-08T06:11:04.108Z,117.90
2017-11-08T06:11:38.016Z,95.65
2017-11-08T06:12:11.961Z,104.22
2017-11-08T06:12:45.890Z,100.03
2017-11-08T06:13:19.784Z,102.75
2017-11-08T06:13:53.691Z,103.93
2017-11-08T06:14:27.583Z,112.80
2017-11-08T06:15:01.463Z,107.68
2017-11-08T06:15:35.355Z,102.10
2017-11-08T06:16:09.253Z,107.40
2017-11-08T06:16:43.184Z,103.70
2017-11-08T06:17:17.980Z,110.65
2017-11-08T06:17:51.906Z,103.03
2017-11-08T06:18:25.815Z,98.65
2017-11-08T06:18:59.710Z,95.40
2017-11-08T06:19:33.592Z,95.65
2017-11-08T06:20:07.497Z,111.10
2017-11-08T06:20:41.383Z,107.75
2017-11-08T06:21:15.278Z,102.20
2017-11-08T06:21:49.207Z,106.55
2017-11-08T06:22:23.081Z,104.63
2017-11-08T06:22:56.963Z,91.35
2017-11-08T06:23:30.853Z,114.32
2017-11-08T06:24:04.818Z,113.37
2017-11-08T06:24:38.881Z,103.35
2017-11-08T06:25:12.831Z,108.40
2017-11-08T06:25:46.668Z,95.82
2017-11-08T06:26:20.582Z,97.57
2017-11-08T06:26:54.855Z,93.30
2017-11-08T06:27:28.744Z,95.65
2017-11-08T06:28:02.668Z,112.55
2017-11-08T06:28:36.543Z,99.85
2017-11-08T06:29:10.441Z,103.70
2017-11-08T06:29:44.509Z,97.60
2017-11-08T06:30:18.423Z,97.65
2017-11-08T06:30:52.728Z,99.15
2017-11-08T06:31:26.751Z,105.00
2017-11-08T06:32:00.649Z,101.95
2017-11-08T06:32:34.528Z,102.03
2017-11-08T06:33:08.415Z,105.43
2017-11-08T06:33:42.295Z,100.72
2017-11-08T06:34:16.182Z,104.03
2017-11-08T06:34:50.063Z,102.15
2017-11-08T06:35:24.005Z,100.62
2017-11-08T06:35:57.885Z,107.20
2017-11-08T06:36:31.821Z,110.20
2017-11-08T06:37:05.720Z,100.20
2017-11-08T06:37:39.598Z,101.65
2017-11-08T06:38:13.511Z,98.95
2017-11-08T06:38:47.440Z,103.80
2017-11-08T06:39:21.339Z,107.47
2017-11-08T06:39:55.228Z,106.00
2017-11-08T06:40:29.121Z,106.72
2017-11-08T06:41:03.001Z,104.85
2017-11-08T06:41:36.870Z,100.90
2017-11-08T06:42:10.809Z,105.12
2017-11-08T06:42:44.688Z,103.20
2017-11-08T06:43:18.593Z,97.45
2017-11-08T06:43:52.495Z,103.80
2017-11-08T06:44:26.390Z,105.78
2017-11-08T06:45:00.266Z,108.35
2017-11-08T06:45:34.191Z,113.15
2017-11-08T06:46:08.082Z,111.43
2017-11-08T06:46:42.003Z,102.20
2017-11-08T06:47:15.897Z,112.10
2017-11-08T06:47:49.781Z,103.32
2017-11-08T06:48:23.704Z,99.85
2017-11-08T06:48:57.623Z,107.55
2017-11-08T06:49:31.508Z,96.32
2017-11-08T06:50:05.398Z,98.95
2017-11-08T06:50:39.280Z,95.82
2017-11-08T06:51:13.174Z,100.72
2017-11-08T06:51:47.093Z,101.87
2017-11-08T06:52:21.015Z,103.10
2017-11-08T06:52:54.956Z,113.22
2017-11-08T06:53:28.841Z,100.38
2017-11-08T06:54:02.738Z,106.47
2017-11-08T06:54:36.611Z,101.10
2017-11-08T06:55:10.561Z,99.00
2017-11-08T06:55:44.455Z,105.85
2017-11-08T06:56:18.347Z,99.28
2017-11-08T06:56:52.277Z,101.25
2017-11-08T06:57:26.302Z,101.75
2017-11-08T06:58:03.130Z,99.85
2017-11-08T06:58:37.031Z,97.22
2017-11-08T06:59:10.903Z,99.60
2017-11-08T06:59:44.786Z,90.30
2017-11-08T07:00:18.716Z,100.72
2017-11-08T07:00:52.612Z,90.80
2017-11-08T07:01:26.499Z,93.45
2017-11-08T07:02:00.381Z,100.57
2017-11-08T07:02:34.273Z,101.87
2017-11-08T07:03:10.949Z,98.60
2017-11-08T07:03:44.830Z,101.43
2017-11-08T07:04:18.742Z,97.18
2017-11-08T07:04:53.425Z,104.12
2017-11-08T07:05:27.316Z,99.68
2017-11-08T07:06:02.603Z,105.80
2017-11-08T07:06:36.710Z,102.30
2017-11-08T07:07:10.588Z,102.03
2017-11-08T07:07:44.484Z,95.75
2017-11-08T07:08:18.379Z,101.43
2017-11-08T07:08:52.240Z,98.43
2017-11-08T07:09:26.155Z,98.85
2017-11-08T07:10:00.061Z,92.80
2017-11-08T07:10:33.940Z,95.55
2017-11-08T07:11:07.827Z,91.90
2017-11-08T07:11:41.723Z,94.30
2017-11-08T07:12:15.618Z,101.30
2017-11-08T07:12:49.633Z,94.35
2017-11-08T07:13:24.168Z,91.22
2017-11-08T07:13:58.123Z,94.15
2017-11-08T07:14:32.046Z,96.90
2017-11-08T07:15:05.939Z,88.00
2017-11-08T07:15:39.849Z,87.07